Time;durP1;ratioP1;P1;durP2;ratioP2;P2;SDS_P1;SDS_P2;PMS_P1;PMS_P2;Temp;Humidity;BMP_temperature;BMP_pressure;BME280_temperature;BME280_humidity;BME280_pressure;Samples;Min_cycle;Max_cycle;Signal;HPM_P1;HPM_P2
2022/04/27 00:01:30;;;;;;;4.00;3.80;;;;;;;6.94;91.51;101775.94;6137879;23;20402;-75
2022/04/27 00:03:57;;;;;;;3.50;3.40;;;;;;;6.66;91.59;101723.44;6171481;23;20446;-74
2022/04/27 00:06:23;;;;;;;4.00;3.80;;;;;;;6.74;91.58;101734.59;6166988;23;20049;-75
2022/04/27 00:08:49;;;;;;;5.38;5.13;;;;;;;6.41;91.76;101715.19;6136609;23;20353;-75
2022/04/27 00:11:16;;;;;;;4.38;4.18;;;;;;;6.74;91.99;101745.88;6167567;23;20126;-75
2022/04/27 00:13:42;;;;;;;3.70;3.60;;;;;;;7.00;92.93;101775.81;6141714;23;20009;-75
2022/04/27 00:16:09;;;;;;;3.50;3.40;;;;;;;6.47;91.69;101689.88;6169842;23;20247;-75
2022/04/27 00:18:35;;;;;;;3.90;3.70;;;;;;;6.34;93.07;101667.53;6143362;23;20158;-75
2022/04/27 00:21:02;;;;;;;5.38;5.18;;;;;;;6.46;92.92;101688.16;6165453;23;20351;-75
2022/04/27 00:23:30;;;;;;;3.45;3.35;;;;;;;6.81;92.23;101744.00;6146324;23;20285;-75
2022/04/27 00:25:56;;;;;;;5.95;5.65;;;;;;;6.66;92.45;101713.84;6164777;23;20091;-75
2022/04/27 00:28:23;;;;;;;3.70;3.60;;;;;;;7.09;93.02;101777.38;6170736;23;20539;-75
2022/04/27 00:30:49;;;;;;;4.72;4.55;;;;;;;7.04;93.26;101780.09;6165790;23;20028;-75
2022/04/27 00:33:16;;;;;;;6.05;5.75;;;;;;;6.95;92.24;101770.66;6151225;23;20443;-75
2022/04/27 00:35:43;;;;;;;3.85;3.65;;;;;;;7.05;91.80;101788.75;6137319;23;20096;-75
2022/04/27 00:38:09;;;;;;;4.20;4.00;;;;;;;7.04;92.00;101787.91;6165565;23;20016;-75
2022/04/27 00:40:36;;;;;;;4.20;4.00;;;;;;;6.69;92.39;101732.03;6161090;23;20027;-74
2022/04/27 00:43:03;;;;;;;5.40;5.15;;;;;;;6.58;92.40;101724.44;6139050;23;20021;-74
2022/04/27 00:45:29;;;;;;;4.68;4.45;;;;;;;6.33;92.92;101681.44;6143023;23;20036;-74
2022/04/27 00:47:58;;;;;;;4.97;4.78;;;;;;;6.96;92.32;101788.06;6159114;23;20473;-74
2022/04/27 00:50:24;;;;;;;29.45;4.22;;;;;;;6.51;92.86;101721.97;6169999;23;20737;-73
2022/04/27 00:52:51;;;;;;;3.90;3.75;;;;;;;6.95;93.13;101782.84;6140282;23;20400;-74
2022/04/27 00:55:18;;;;;;;4.22;4.03;;;;;;;6.99;93.14;101789.75;6167248;23;20011;-75
2022/04/27 00:57:47;;;;;;;3.50;3.40;;;;;;;6.99;92.86;101837.56;6168155;23;20628;-72
2022/04/27 01:00:17;;;;;;;3.55;3.45;;;;;;;6.99;93.14;101797.56;6164099;23;20028;-74
2022/04/27 01:02:43;;;;;;;3.58;3.45;;;;;;;5.55;93.12;101558.63;6169821;23;20013;-75
2022/04/27 01:05:11;;;;;;;3.50;3.40;;;;;;;6.35;92.39;101708.34;6156039;23;20031;-74
2022/04/27 01:07:39;;;;;;;4.65;4.45;;;;;;;6.87;91.73;101787.38;6162005;23;20032;-74
2022/04/27 01:10:08;;;;;;;4.93;4.72;;;;;;;6.99;92.45;101805.41;6132912;23;20230;-74
2022/04/27 01:12:36;;;;;;;3.70;3.60;;;;;;;6.76;92.49;101791.03;6165719;23;20015;-73
2022/04/27 01:15:03;;;;;;;4.70;4.50;;;;;;;6.20;92.54;101686.03;6141694;23;20060;-73
2022/04/27 01:17:30;;;;;;;4.00;3.80;;;;;;;6.60;92.62;101758.31;6166337;23;20461;-74
2022/04/27 01:19:56;;;;;;;4.25;4.05;;;;;;;6.87;93.69;101805.63;6166863;23;20117;-74
2022/04/27 01:22:23;;;;;;;4.15;3.95;;;;;;;6.45;93.14;101742.94;6172994;23;20040;-74
2022/04/27 01:24:50;;;;;;;4.05;3.88;;;;;;;6.81;93.43;101813.59;6130313;23;20019;-73
2022/04/27 01:27:16;;;;;;;4.30;4.10;;;;;;;6.74;93.70;101815.47;6170369;23;20474;-74
2022/04/27 01:29:43;;;;;;;3.70;3.60;;;;;;;6.69;94.77;101820.72;6139684;23;20096;-74
2022/04/27 01:32:10;;;;;;;3.60;3.50;;;;;;;6.53;95.43;101788.00;6161649;23;20072;-74
2022/04/27 01:34:36;;;;;;;3.80;3.70;;;;;;;6.64;94.87;101808.69;6137626;23;20031;-74
2022/04/27 01:39:49;;;;;;;4.07;3.92;;;;;;;5.63;95.37;101660.91;6132907;23;20009;-72
2022/04/27 01:42:16;;;;;;;3.60;3.50;;;;;;;6.49;96.28;101815.00;6139148;23;20043;-73
2022/04/27 01:44:42;;;;;;;4.20;4.00;;;;;;;6.11;96.33;101761.78;6114180;23;20037;-73
2022/04/27 01:47:08;;;;;;;3.50;3.40;;;;;;;6.21;96.17;101796.38;6167391;23;20016;-75
2022/04/27 01:49:35;;;;;;;3.80;3.70;;;;;;;5.93;98.59;101774.19;6161895;23;20771;-74
2022/04/27 01:55:07;;;;;;;3.72;3.53;;;;;;;6.02;100.00;101821.88;5990063;23;20031;-74
2022/04/27 01:57:33;;;;;;;3.67;3.58;;;;;;;5.92;100.00;101824.56;6042309;23;20041;-74
2022/04/27 02:00:00;;;;;;;5.47;5.28;;;;;;;5.88;100.00;101827.25;6083980;23;20208;-74
2022/04/27 02:02:26;;;;;;;3.67;3.58;;;;;;;5.44;100.00;101771.44;6173034;23;20032;-74
2022/04/27 02:04:54;;;;;;;5.10;4.90;;;;;;;4.97;100.00;101698.31;6172676;23;20442;-73
2022/04/27 02:07:21;;;;;;;4.53;4.22;;;;;;;5.72;100.00;101835.28;6164861;23;20165;-74
2022/04/27 02:09:47;;;;;;;4.03;3.83;;;;;;;4.84;100.00;101689.81;6138745;23;20021;-72
2022/04/27 02:12:14;;;;;;;4.07;3.85;;;;;;;5.53;100.00;101813.84;6145894;23;20031;-74
2022/04/27 02:14:40;;;;;;;4.10;3.90;;;;;;;5.47;100.00;101808.72;6169551;23;20035;-74
2022/04/27 02:17:06;;;;;;;4.13;3.92;;;;;;;5.23;100.00;101783.81;6142903;23;20020;-73
2022/04/27 02:19:33;;;;;;;3.88;3.67;;;;;;;5.57;100.00;101843.28;6172185;23;20079;-75
2022/04/27 02:22:00;;;;;;;3.30;3.20;;;;;;;5.50;100.00;101839.91;6162538;23;20271;-74
2022/04/27 02:24:27;;;;;;;3.55;3.45;;;;;;;5.36;100.00;101821.84;6145758;23;20013;-75
2022/04/27 02:26:54;;;;;;;4.90;4.70;;;;;;;5.21;100.00;101814.22;6162923;23;20013;-74
2022/04/27 02:29:22;;;;;;;3.55;3.45;;;;;;;5.38;100.00;101847.88;6169426;23;20016;-75
2022/04/27 02:31:49;;;;;;;3.50;3.40;;;;;;;4.75;100.00;101748.00;6169591;23;20029;-73
2022/04/27 02:34:16;;;;;;;3.80;3.70;;;;;;;4.93;100.00;101793.75;6160382;23;20024;-74
2022/04/27 02:36:42;;;;;;;3.80;3.70;;;;;;;4.74;100.00;101753.22;6170734;23;20240;-74
2022/04/27 02:39:09;;;;;;;3.50;3.40;;;;;;;5.24;100.00;101849.78;6173511;23;20016;-73
2022/04/27 02:41:36;;;;;;;3.60;3.50;;;;;;;4.80;100.00;101780.00;6131135;23;20384;-74
2022/04/27 02:44:02;;;;;;;4.95;4.75;;;;;;;5.17;100.00;101852.44;6110937;23;20119;-73
2022/04/27 02:46:29;;;;;;;3.40;3.30;;;;;;;4.76;100.00;101782.66;6115522;23;20013;-74
2022/04/27 02:51:49;;;;;;;3.60;3.40;;;;;;;5.06;100.00;101864.69;6139593;23;20514;-75
2022/04/27 02:54:17;;;;;;;3.70;3.50;;;;;;;4.89;100.00;101841.47;6132280;23;20017;-74
2022/04/27 02:56:44;;;;;;;3.50;3.40;;;;;;;4.79;100.00;101840.69;6115875;23;20020;-75
2022/04/27 02:59:10;;;;;;;3.70;3.60;;;;;;;4.93;100.00;101863.97;6132244;23;20017;-75
2022/04/27 03:01:40;;;;;;;3.70;3.60;;;;;;;4.44;100.00;101790.78;6132689;23;20017;-75
2022/04/27 03:04:08;;;;;;;4.28;4.07;;;;;;;4.90;100.00;101870.94;6132177;23;20084;-74
2022/04/27 03:06:35;;;;;;;3.83;3.63;;;;;;;4.87;100.00;101869.25;6136427;23;20028;-75
2022/04/27 03:09:02;;;;;;;5.15;4.95;;;;;;;4.84;100.00;101871.00;6125404;23;20016;-74
2022/04/27 03:11:28;;;;;;;3.70;3.50;;;;;;;4.79;100.00;101866.72;6130229;23;20017;-74
2022/04/27 03:13:55;;;;;;;3.55;3.45;;;;;;;4.79;100.00;101871.91;6110145;23;20021;-75
2022/04/27 03:16:21;;;;;;;4.47;4.28;;;;;;;4.78;100.00;101864.97;6133625;23;20024;-75
2022/04/27 03:18:48;;;;;;;3.38;3.28;;;;;;;4.04;100.00;101762.53;6136669;23;20064;-73
2022/04/27 03:21:14;;;;;;;3.50;3.40;;;;;;;4.76;100.00;101871.94;6132107;23;21025;-74
2022/04/27 03:23:40;;;;;;;3.63;3.53;;;;;;;3.91;100.00;101731.47;6135710;23;20032;-73
2022/04/27 03:26:07;;;;;;;4.70;4.50;;;;;;;4.71;100.00;101868.53;6128992;23;20096;-75
2022/04/27 03:28:34;;;;;;;3.58;3.47;;;;;;;4.49;100.00;101835.75;6115199;23;20080;-74
2022/04/27 03:31:00;;;;;;;4.85;4.65;;;;;;;3.81;100.00;101729.81;6131229;23;20036;-75
2022/04/27 03:33:27;;;;;;;4.07;3.88;;;;;;;4.67;100.00;101879.84;6114355;23;20018;-75
2022/04/27 03:35:53;;;;;;;4.07;3.90;;;;;;;4.66;100.00;101879.84;6137044;23;20028;-75
2022/04/27 03:38:20;;;;;;;4.20;4.00;;;;;;;4.30;100.00;101835.91;6144141;23;20516;-75
2022/04/27 03:40:47;;;;;;;4.25;4.05;;;;;;;3.89;100.00;101766.97;6152485;23;20009;-75
2022/04/27 03:43:14;;;;;;;3.35;3.25;;;;;;;4.47;100.00;101884.31;6140096;23;20047;-75
2022/04/27 03:45:41;;;;;;;3.50;3.40;;;;;;;4.02;100.00;101818.81;6146369;23;20402;-75
2022/04/27 03:48:08;;;;;;;3.67;3.58;;;;;;;4.30;100.00;101856.72;6130856;23;20126;-75
2022/04/27 03:50:35;;;;;;;3.42;3.33;;;;;;;4.55;100.00;101898.09;6167911;23;20016;-74
2022/04/27 03:53:02;;;;;;;4.45;4.25;;;;;;;4.08;100.00;101836.97;6164179;23;20205;-75
2022/04/27 03:55:31;;;;;;;3.50;3.40;;;;;;;4.54;100.00;101899.84;6147033;23;20037;-75
2022/04/27 03:57:57;;;;;;;4.60;4.40;;;;;;;4.40;100.00;101899.94;6160922;23;20028;-74
2022/04/27 04:00:24;;;;;;;3.45;3.30;;;;;;;4.44;100.00;101913.78;6135431;23;20031;-75
2022/04/27 04:02:50;;;;;;;4.43;3.92;;;;;;;4.00;100.00;101852.59;6169606;23;20023;-72
2022/04/27 04:05:17;;;;;;;3.20;3.10;;;;;;;4.45;100.00;101917.25;6163856;23;20255;-74
2022/04/27 04:07:43;;;;;;;3.20;3.10;;;;;;;3.42;100.00;101743.91;6139933;23;20188;-75
2022/04/27 04:10:10;;;;;;;3.45;3.35;;;;;;;4.02;100.00;101850.00;6164329;23;20017;-74
2022/04/27 04:12:36;;;;;;;3.70;3.50;;;;;;;4.35;100.00;101914.72;6139930;23;20162;-75
2022/04/27 04:15:03;;;;;;;5.47;5.28;;;;;;;4.42;100.00;101912.09;6138775;23;20373;-74
2022/04/27 04:17:30;;;;;;;4.28;3.92;;;;;;;2.76;100.00;101646.56;6165364;23;20024;-74
2022/04/27 04:19:56;;;;;;;4.75;4.55;;;;;;;4.04;100.00;101853.44;6162217;23;20020;-75
2022/04/27 04:22:22;;;;;;;3.65;3.55;;;;;;;3.43;100.00;101740.44;6167682;23;20030;-75
2022/04/27 04:30:19;;;;;;;3.35;3.25;;;;;;;4.23;100.00;101861.97;6163573;23;20024;-74
2022/04/27 04:32:45;;;;;;;3.42;3.33;;;;;;;4.36;100.00;101879.19;6161524;23;20107;-73
2022/04/27 04:35:13;;;;;;;3.33;3.22;;;;;;;3.20;100.00;101661.00;6164724;23;20783;-75
2022/04/27 04:37:40;;;;;;;4.05;3.85;;;;;;;4.90;100.00;101946.38;6161437;23;20048;-74
2022/04/27 04:40:07;;;;;;;4.15;3.95;;;;;;;3.78;100.00;101751.44;6164837;23;20024;-73
2022/04/27 04:42:35;;;;;;;3.25;3.15;;;;;;;4.91;100.00;101932.47;6170394;23;20041;-74
2022/04/27 04:45:01;;;;;;;5.07;4.88;;;;;;;5.01;100.00;101944.53;6135355;23;20328;-74
2022/04/27 04:47:28;;;;;;;3.47;3.38;;;;;;;5.04;100.00;101952.31;6166057;23;20024;-75
2022/04/27 04:49:54;;;;;;;4.90;4.70;;;;;;;5.07;100.00;101944.50;6170178;23;20347;-74
2022/04/27 04:52:21;;;;;;;3.60;3.50;;;;;;;5.06;100.00;101928.91;6164831;23;20049;-74
2022/04/27 04:54:47;;;;;;;3.30;3.20;;;;;;;4.69;100.00;101853.78;6144610;23;20017;-74
2022/04/27 04:57:13;;;;;;;3.40;3.30;;;;;;;4.87;100.00;101877.03;6159356;23;20824;-75
2022/04/27 04:59:40;;;;;;;3.60;3.50;;;;;;;4.98;100.00;101882.13;6164206;23;20028;-73
2022/04/27 05:02:06;;;;;;;4.28;4.07;;;;;;;5.49;100.00;101965.78;6164606;23;20179;-73
2022/04/27 05:04:34;;;;;;;4.03;3.72;;;;;;;5.51;100.00;101966.63;6172711;23;20048;-74
2022/04/27 05:07:01;;;;;;;5.40;5.10;;;;;;;5.20;100.00;101907.06;6136781;23;20514;-74
2022/04/27 05:09:27;;;;;;;3.70;3.60;;;;;;;5.47;100.00;101938.91;6165378;23;20091;-73
2022/04/27 05:11:54;;;;;;;5.07;4.88;;;;;;;5.69;100.00;101962.94;6139361;23;20013;-73
2022/04/27 05:14:20;;;;;;;3.58;3.47;;;;;;;5.73;100.00;101967.25;6166672;23;20032;-73
2022/04/27 05:16:46;;;;;;;4.18;3.97;;;;;;;5.56;100.00;101925.75;6145287;23;20087;-75
2022/04/27 05:19:13;;;;;;;4.07;3.88;;;;;;;5.83;100.00;101969.72;6166894;23;20028;-73
2022/04/27 05:21:39;;;;;;;3.70;3.60;;;;;;;5.87;100.00;101974.88;6171724;23;20465;-73
2022/04/27 05:24:06;;;;;;;4.97;4.72;;;;;;;5.86;100.00;101967.09;6166831;23;20012;-74
2022/04/27 05:26:32;;;;;;;27.35;25.95;;;;;;;4.80;100.00;101805.16;6025744;23;20255;-74
2022/04/27 05:31:55;;;;;;;3.70;3.60;;;;;;;6.07;100.00;101984.22;6163190;23;20279;-71
2022/04/27 05:34:22;;;;;;;3.50;3.40;;;;;;;5.20;100.00;101789.94;6162382;23;20073;-74
2022/04/27 05:36:50;;;;;;;3.92;3.78;;;;;;;6.82;100.00;101991.00;6177118;23;20095;-74
2022/04/27 05:39:18;;;;;;;3.55;3.45;;;;;;;6.55;97.83;101927.91;6145001;23;20437;-74
2022/04/27 05:41:45;;;;;;;3.70;3.50;;;;;;;7.18;96.86;101934.69;6174851;23;20027;-72
2022/04/27 05:44:12;;;;;;;3.78;3.67;;;;;;;8.22;94.38;101997.97;6149413;23;20516;-74
2022/04/27 05:46:39;;;;;;;3.97;3.78;;;;;;;8.40;91.95;101926.97;6118013;23;20225;-74
2022/04/27 05:49:06;;;;;;;4.93;4.72;;;;;;;9.39;90.19;101990.84;6142470;23;20024;-75
2022/04/27 05:51:32;;;;;;;4.43;4.22;;;;;;;9.40;86.22;101940.16;6167574;23;20015;-75
2022/04/27 05:53:58;;;;;;;5.57;5.35;;;;;;;9.70;80.68;102000.50;6141503;23;20239;-74
2022/04/27 05:56:25;;;;;;;4.70;4.50;;;;;;;9.19;80.53;102012.31;6162501;23;20087;-75
2022/04/27 05:58:51;;;;;;;5.07;4.88;;;;;;;9.17;81.53;102020.22;6140208;23;20493;-74
2022/04/27 06:01:21;;;;;;;4.45;4.25;;;;;;;8.77;82.26;101955.72;6165616;23;20031;-74
2022/04/27 06:03:47;;;;;;;4.13;3.92;;;;;;;9.25;82.47;102021.78;6168169;23;20036;-74
2022/04/27 06:06:14;;;;;;;4.43;4.22;;;;;;;9.08;81.31;102016.94;6171148;23;20417;-73
2022/04/27 06:08:41;;;;;;;4.45;4.25;;;;;;;8.94;81.08;101984.13;6169764;23;20592;-74
2022/04/27 06:11:08;;;;;;;4.47;4.28;;;;;;;9.14;81.46;102024.66;6163069;23;20842;-75
2022/04/27 06:13:34;;;;;;;4.50;4.22;;;;;;;9.07;81.68;102029.19;6148315;23;20411;-74
2022/04/27 06:16:00;;;;;;;5.88;5.57;;;;;;;9.19;81.76;102039.38;6142933;23;20175;-73
2022/04/27 06:18:27;;;;;;;4.30;4.00;;;;;;;9.00;82.27;101977.88;6145915;23;20434;-75
2022/04/27 06:20:55;;;;;;;4.95;4.75;;;;;;;8.57;82.52;101956.22;6164817;23;20103;-74
2022/04/27 06:23:25;;;;;;;4.40;4.20;;;;;;;8.94;83.58;101978.91;6164459;23;20016;-74
2022/04/27 06:25:51;;;;;;;5.13;4.90;;;;;;;9.02;83.62;101981.34;6169969;23;20035;-73
2022/04/27 06:28:19;;;;;;;4.60;4.30;;;;;;;9.35;83.33;102036.38;6162164;23;20044;-75
2022/04/27 06:30:45;;;;;;;4.20;4.00;;;;;;;7.94;82.26;101824.28;6142239;23;20028;-73
2022/04/27 06:33:12;;;;;;;4.57;4.38;;;;;;;8.99;82.53;101991.88;6142606;23;20648;-74
2022/04/27 06:35:40;;;;;;;4.40;4.20;;;;;;;9.18;79.96;102047.25;6173914;23;20031;-74
2022/04/27 06:38:07;;;;;;;4.88;4.68;;;;;;;8.68;80.50;101950.75;6130753;23;20533;-75
2022/04/27 06:40:54;;;;;;;5.45;5.20;;;;;;;8.81;80.17;101940.81;6161948;23;20032;-74
2022/04/27 06:43:20;;;;;;;3.80;3.70;;;;;;;9.41;80.13;102045.84;6143405;23;20755;-74
2022/04/27 06:45:47;;;;;;;4.13;3.92;;;;;;;9.51;81.02;102042.06;6162380;23;20032;-75
2022/04/27 06:48:13;;;;;;;4.00;3.80;;;;;;;9.67;78.68;102045.16;6165998;23;20008;-74
2022/04/27 06:50:40;;;;;;;4.38;4.18;;;;;;;9.59;76.66;102043.59;6174090;23;20437;-74
2022/04/27 06:53:06;;;;;;;4.50;4.30;;;;;;;8.95;78.60;101975.38;6163846;23;20015;-74
2022/04/27 06:55:33;;;;;;;4.10;3.90;;;;;;;9.31;79.10;102045.22;6165373;23;20017;-74
2022/04/27 06:58:00;;;;;;;6.38;6.07;;;;;;;9.11;78.49;101986.31;6164332;23;20099;-74
2022/04/27 07:00:26;;;;;;;4.10;3.90;;;;;;;9.57;77.67;102045.38;6171045;23;20054;-73
2022/04/27 07:02:52;;;;;;;5.60;5.30;;;;;;;9.32;78.06;101963.06;6173457;23;20284;-76
2022/04/27 07:05:20;;;;;;;3.80;3.65;;;;;;;9.27;76.40;101954.50;6144622;23;20029;-73
2022/04/27 07:07:47;;;;;;;3.80;3.70;;;;;;;8.76;76.09;101822.31;6161281;23;20031;-73
2022/04/27 07:10:15;;;;;;;4.38;4.15;;;;;;;9.93;72.84;102020.84;6168767;23;20024;-74
2022/04/27 07:12:46;;;;;;;4.18;3.97;;;;;;;9.39;72.75;101956.78;6169989;23;20027;-73
2022/04/27 07:15:12;;;;;;;4.32;4.13;;;;;;;9.93;71.89;102053.16;6169929;23;20071;-73
2022/04/27 07:17:39;;;;;;;4.60;4.40;;;;;;;9.68;72.17;101995.31;6167704;23;20017;-73
2022/04/27 07:20:06;;;;;;;4.72;4.53;;;;;;;9.97;71.55;102057.41;6164923;23;20148;-73
2022/04/27 07:22:32;;;;;;;4.30;4.10;;;;;;;9.84;72.36;102040.28;6173021;23;20029;-75
2022/04/27 07:24:59;;;;;;;5.60;5.40;;;;;;;9.78;71.22;102043.97;6167681;23;20124;-73
2022/04/27 07:27:27;;;;;;;4.07;3.88;;;;;;;10.07;71.57;102078.16;6174625;23;20509;-75
2022/04/27 07:29:54;;;;;;;5.38;5.13;;;;;;;10.23;72.90;102062.84;6161906;23;20028;-75
2022/04/27 07:32:20;;;;;;;4.13;3.92;;;;;;;10.08;71.11;102030.03;6171701;23;20025;-74
2022/04/27 07:34:46;;;;;;;4.20;4.00;;;;;;;10.13;70.39;102049.97;6167266;23;20062;-74
2022/04/27 07:37:13;;;;;;;4.10;3.90;;;;;;;10.33;69.39;102067.78;6168636;23;20075;-73
2022/04/27 07:39:39;;;;;;;4.32;4.13;;;;;;;10.07;69.08;102044.91;6177884;23;20016;-75
2022/04/27 07:42:06;;;;;;;5.28;5.07;;;;;;;10.27;70.91;102044.34;6137554;23;20291;-75
2022/04/27 07:44:32;;;;;;;4.70;4.50;;;;;;;10.29;68.46;102012.81;6165471;23;20032;-73
2022/04/27 07:46:58;;;;;;;5.50;5.30;;;;;;;10.29;68.01;102037.28;6135423;23;20024;-75
2022/04/27 07:49:25;;;;;;;4.32;4.13;;;;;;;10.61;68.51;102085.34;6166008;23;20005;-73
2022/04/27 07:51:51;;;;;;;4.68;4.47;;;;;;;10.80;67.09;102080.41;6122550;23;20021;-73
2022/04/27 07:54:18;;;;;;;4.25;4.05;;;;;;;11.00;67.60;102078.91;6147401;23;20034;-74
2022/04/27 07:56:44;;;;;;;4.40;4.20;;;;;;;10.62;66.46;102024.06;6117194;23;20019;-75
2022/04/27 07:59:11;;;;;;;4.00;3.80;;;;;;;10.81;64.20;102083.91;6164842;23;20636;-75
2022/04/27 08:01:37;;;;;;;4.40;4.20;;;;;;;10.85;65.06;102061.88;6133630;23;20025;-73
2022/04/27 08:04:04;;;;;;;4.60;4.40;;;;;;;10.74;68.08;102018.44;6163015;23;20420;-74
2022/04/27 08:06:30;;;;;;;4.10;3.90;;;;;;;11.09;66.22;102045.34;6174576;23;20295;-72
2022/04/27 08:08:57;;;;;;;5.80;5.45;;;;;;;11.39;64.02;102076.78;6168415;23;20023;-74
2022/04/27 08:11:23;;;;;;;4.10;3.90;;;;;;;11.33;63.09;102092.75;6172896;23;20453;-74
2022/04/27 08:13:49;;;;;;;4.95;4.75;;;;;;;11.06;62.30;102086.59;6161235;23;20015;-74
2022/04/27 08:16:16;;;;;;;4.13;3.92;;;;;;;11.51;63.99;102094.75;6167746;23;20008;-74
2022/04/27 08:18:42;;;;;;;4.88;4.68;;;;;;;10.63;63.88;101926.03;6140781;23;20476;-72
2022/04/27 08:21:15;;;;;;;4.70;4.50;;;;;;;11.26;62.99;102041.28;6159399;23;20028;-74
2022/04/27 08:23:50;;;;;;;4.30;4.10;;;;;;;11.84;62.67;102097.13;6150606;23;20285;-74
2022/04/27 08:26:17;;;;;;;4.30;4.10;;;;;;;12.07;60.15;102098.13;6141732;23;20038;-74
2022/04/27 08:28:45;;;;;;;4.43;4.22;;;;;;;12.37;60.21;102102.25;6160195;23;20016;-75
2022/04/27 08:31:13;;;;;;;4.32;4.13;;;;;;;12.46;58.09;102105.47;6144464;23;20044;-74
2022/04/27 08:33:40;;;;;;;4.18;3.97;;;;;;;11.74;59.53;102032.63;6142433;23;20025;-73
2022/04/27 08:36:07;;;;;;;4.60;4.40;;;;;;;12.16;59.79;102058.31;6165682;23;20015;-74
2022/04/27 08:38:54;;;;;;;5.63;5.32;;;;;;;12.59;58.97;102098.84;6174485;23;20464;-72
2022/04/27 08:41:20;;;;;;;6.45;6.15;;;;;;;12.77;57.22;102106.03;6166572;23;20028;-73
2022/04/27 08:43:47;;;;;;;4.78;4.57;;;;;;;12.83;56.40;102093.50;6163721;23;20032;-73
2022/04/27 08:46:15;;;;;;;4.40;4.20;;;;;;;12.83;55.19;102110.19;6162081;23;20056;-72
2022/04/27 08:48:48;;;;;;;5.60;5.20;;;;;;;12.90;54.56;102110.81;6167652;23;20049;-73
2022/04/27 08:51:15;;;;;;;4.20;4.00;;;;;;;12.39;54.10;102039.03;6163580;23;20086;-73
2022/04/27 08:53:43;;;;;;;4.90;4.70;;;;;;;12.52;53.62;102003.38;6141650;23;20019;-74
2022/04/27 08:56:10;;;;;;;5.07;4.88;;;;;;;13.14;52.49;102109.81;6131594;23;20088;-73
2022/04/27 08:58:36;;;;;;;4.50;4.30;;;;;;;12.96;53.84;102102.66;6157377;23;20006;-76
2022/04/27 09:01:08;;;;;;;5.10;4.90;;;;;;;11.94;53.96;101884.59;6161001;23;20172;-73
2022/04/27 09:03:36;;;;;;;4.80;4.60;;;;;;;13.28;52.21;102111.03;6163226;23;20013;-74
2022/04/27 09:06:05;;;;;;;4.55;4.35;;;;;;;12.08;53.49;101908.59;6175115;23;20105;-74
2022/04/27 09:08:46;;;;;;;4.90;4.70;;;;;;;13.59;53.39;102112.44;6175814;23;20032;-73
2022/04/27 09:11:25;;;;;;;4.60;4.40;;;;;;;13.41;51.76;102117.56;6175387;23;20115;-74
2022/04/27 09:13:56;;;;;;;4.68;4.47;;;;;;;13.50;51.69;102119.81;6176110;23;20012;-74
2022/04/27 09:22:27;;;;;;;5.10;4.85;;;;;;;13.82;49.03;102114.94;6175473;23;20297;-74
2022/04/27 09:24:57;;;;;;;5.25;5.05;;;;;;;13.96;50.80;102114.34;6113375;23;20250;-74
2022/04/27 09:27:25;;;;;;;4.85;4.60;;;;;;;13.89;47.00;102123.47;6145979;23;20380;-73
2022/04/27 09:30:01;;;;;;;4.97;4.68;;;;;;;13.63;48.93;102043.69;6146410;23;20025;-73
2022/04/27 09:32:28;;;;;;;5.32;5.03;;;;;;;13.68;49.25;102038.19;6170682;23;20028;-74
2022/04/27 09:34:55;;;;;;;5.85;5.57;;;;;;;13.36;50.58;102058.88;6166978;23;20032;-74
2022/04/27 09:37:33;;;;;;;4.85;4.65;;;;;;;13.93;50.01;102118.00;6177788;23;20095;-74
2022/04/27 09:40:08;;;;;;;5.00;4.80;;;;;;;14.24;53.10;102126.34;6146326;23;20048;-73
2022/04/27 09:42:37;;;;;;;4.90;4.70;;;;;;;13.74;50.03;102057.22;6147265;23;20017;-74
2022/04/27 09:45:19;;;;;;;4.85;4.60;;;;;;;13.92;48.23;102128.63;6178587;23;20013;-73
2022/04/27 09:47:47;;;;;;;4.55;4.35;;;;;;;13.97;46.47;102121.34;6177344;23;20175;-73
2022/04/27 09:50:14;;;;;;;4.80;4.60;;;;;;;14.22;47.39;102126.41;6149517;23;20489;-74
2022/04/27 09:52:41;;;;;;;5.10;4.90;;;;;;;13.91;48.29;102090.81;6177062;23;20406;-73
2022/04/27 09:55:07;;;;;;;5.00;4.70;;;;;;;14.03;50.09;102114.94;6166885;23;20016;-74
2022/04/27 09:57:38;;;;;;;5.50;5.20;;;;;;;14.43;51.72;102121.94;6154190;23;20100;-73
2022/04/27 10:00:06;;;;;;;6.05;5.75;;;;;;;14.60;48.25;102120.34;6170690;23;20035;-74
2022/04/27 10:02:34;;;;;;;5.13;4.93;;;;;;;14.80;46.84;102109.69;6168961;23;20017;-72
2022/04/27 10:05:01;;;;;;;5.40;5.20;;;;;;;14.26;45.61;102113.94;6162764;23;20090;-75
2022/04/27 10:07:32;;;;;;;5.00;4.80;;;;;;;14.37;50.08;102124.84;6150136;23;20457;-74
2022/04/27 10:09:59;;;;;;;6.65;6.35;;;;;;;14.07;46.02;102047.88;6164321;23;20009;-75
2022/04/27 10:12:25;;;;;;;5.20;5.00;;;;;;;14.10;47.17;102011.66;6168682;23;20504;-74
2022/04/27 10:14:52;;;;;;;5.10;4.90;;;;;;;14.18;46.40;102113.41;6172062;23;20781;-73
2022/04/27 10:17:18;;;;;;;5.72;5.32;;;;;;;14.52;47.86;102108.31;6169090;23;20155;-73
2022/04/27 10:19:46;;;;;;;4.78;4.57;;;;;;;14.73;47.10;102095.94;6170697;23;20028;-73
2022/04/27 10:22:28;;;;;;;5.53;5.22;;;;;;;14.25;48.85;102052.34;6162018;23;20496;-74
2022/04/27 10:24:55;;;;;;;6.13;5.00;;;;;;;14.11;45.62;102026.56;6132220;23;20477;-74
2022/04/27 10:27:24;;;;;;;5.28;4.95;;;;;;;14.45;46.97;102117.47;6169909;23;20546;-73
2022/04/27 10:29:59;;;;;;;5.45;5.15;;;;;;;14.91;46.73;102101.25;6165217;23;20114;-73
2022/04/27 10:32:41;;;;;;;4.82;4.63;;;;;;;13.98;45.93;101992.88;6177992;23;20157;-74
2022/04/27 10:35:18;;;;;;;5.55;5.25;;;;;;;14.53;47.07;102036.06;6167054;23;20012;-76
2022/04/27 10:37:58;;;;;;;4.85;4.65;;;;;;;13.91;46.11;101911.34;6183731;23;20044;-74
2022/04/27 10:40:32;;;;;;;4.93;4.72;;;;;;;14.31;46.26;102048.53;6174385;23;20062;-74
2022/04/27 10:43:07;;;;;;;5.10;4.85;;;;;;;14.44;46.07;102109.59;6175412;23;20092;-74
2022/04/27 10:45:38;;;;;;;4.93;4.68;;;;;;;14.50;48.36;102104.03;6167585;23;20211;-73
2022/04/27 10:48:07;;;;;;;5.60;5.25;;;;;;;15.10;49.94;102103.88;6143141;23;20032;-73
2022/04/27 10:50:36;;;;;;;5.20;4.90;;;;;;;13.71;47.53;101856.00;6170630;23;20135;-75
2022/04/27 10:53:23;;;;;;;4.93;4.70;;;;;;;14.76;45.72;102084.34;6173539;23;20033;-74
2022/04/27 10:55:56;;;;;;;5.15;4.85;;;;;;;14.69;47.88;102117.25;6145942;23;20029;-73
2022/04/27 10:58:22;;;;;;;4.90;4.70;;;;;;;14.78;50.72;102113.34;6147302;23;20107;-73
2022/04/27 11:00:57;;;;;;;5.32;5.03;;;;;;;15.24;44.76;102111.97;6144737;23;20017;-72
2022/04/27 11:03:38;;;;;;;5.10;4.90;;;;;;;15.18;47.56;102107.00;6171957;23;20011;-73
2022/04/27 11:06:08;;;;;;;5.10;4.90;;;;;;;15.26;44.02;102114.56;6165575;23;20051;-74
2022/04/27 11:09:09;;;;;;;5.47;5.18;;;;;;;14.84;46.85;102076.91;6143305;23;20080;-74
2022/04/27 11:11:54;;;;;;;5.30;5.10;;;;;;;15.54;44.85;102109.59;6140739;23;20482;-74
2022/04/27 11:14:26;;;;;;;5.13;4.82;;;;;;;15.59;44.94;102063.50;6162260;23;20023;-74
2022/04/27 11:16:52;;;;;;;5.47;5.18;;;;;;;15.69;46.52;102099.16;6171234;23;20401;-72
2022/04/27 11:19:19;;;;;;;5.50;5.20;;;;;;;15.64;44.52;102050.91;6167424;23;20019;-72
2022/04/27 11:21:46;;;;;;;5.47;5.18;;;;;;;16.09;46.57;102081.22;6152394;23;20450;-72
2022/04/27 11:24:15;;;;;;;4.80;4.60;;;;;;;15.32;43.83;102103.66;6166957;23;20255;-74
2022/04/27 11:26:46;;;;;;;5.05;4.85;;;;;;;15.56;45.29;102097.13;6153012;23;20015;-74
2022/04/27 11:29:15;;;;;;;5.22;4.93;;;;;;;15.56;43.47;102014.25;6135724;23;20133;-73
2022/04/27 11:31:45;;;;;;;5.40;5.20;;;;;;;15.54;45.77;102103.44;6145464;23;20040;-74
2022/04/27 11:34:25;;;;;;;5.63;5.32;;;;;;;15.90;44.75;102082.19;6155422;23;20044;-75
2022/04/27 11:36:53;;;;;;;6.13;5.82;;;;;;;15.98;44.39;102089.75;6164540;23;20044;-72
2022/04/27 11:39:24;;;;;;;6.18;5.55;;;;;;;16.14;44.16;102079.19;6149810;23;20473;-71
2022/04/27 11:42:01;;;;;;;5.90;5.50;;;;;;;15.69;42.33;102033.00;6166443;23;20040;-73
2022/04/27 11:44:29;;;;;;;5.53;5.22;;;;;;;15.47;43.19;102062.34;6162094;23;20029;-75
2022/04/27 11:46:57;;;;;;;5.43;5.13;;;;;;;16.04;43.12;102088.56;6144052;23;20024;-71
2022/04/27 11:49:24;;;;;;;5.78;5.28;;;;;;;16.44;42.37;102089.06;6151232;23;20111;-75
2022/04/27 11:51:50;;;;;;;5.38;5.07;;;;;;;16.57;43.66;102074.19;6175713;23;20470;-73
2022/04/27 11:54:30;;;;;;;5.75;5.45;;;;;;;15.69;44.87;102083.28;6169939;23;20048;-74